EIN650 EIDW-EDDF
Flight info
| Callsign | EIN650 |
|---|---|
| Flight time | 1h 45m |
| Altitude | 37000 |
| Route | ENDEQ3J ENDEQ Q36 ALAVA Z195 MALUD UL975 WAL M16 DOLAS DCT NAVPI DCT NOLRU DCT DIXAT DIXAT1A |
| Aircraft | A320/M-SDE3FGHIRWY/LB1 |
Departure
| Time | 2026-05-06 10:56 |
|---|---|
| Airport | Dublin Airport (EIDW) |
Arrival
| Time | 2026-05-06 12:42 |
|---|---|
| Airport | Frankfurt Main Airport (EDDF) |
| Time | Latitude | Longitude | Altitude | Speed | Heading |
|---|---|---|---|---|---|
| 2026-05-06 10:38 | 53.42569 | -6.24679 | 211 ft | 0 kts | 71° |
| 2026-05-06 10:47 | 53.42563 | -6.24708 | 217 ft | 4 kts | 78° |
| 2026-05-06 10:47 | 53.42560 | -6.24752 | 213 ft | 4 kts | 90° |
| 2026-05-06 10:47 | 53.42561 | -6.24797 | 211 ft | 4 kts | 91° |
| 2026-05-06 10:47 | 53.42559 | -6.24834 | 211 ft | 4 kts | 33° |
| 2026-05-06 10:48 | 53.42549 | -6.24831 | 218 ft | 4 kts | 336° |
| 2026-05-06 10:48 | 53.42529 | -6.24817 | 211 ft | 0 kts | 338° |
| 2026-05-06 10:50 | 53.42532 | -6.24818 | 211 ft | 3 kts | 338° |
| 2026-05-06 10:51 | 53.42595 | -6.24859 | 211 ft | 13 kts | 338° |
| 2026-05-06 10:51 | 53.42672 | -6.24934 | 213 ft | 13 kts | 327° |
| 2026-05-06 10:51 | 53.42750 | -6.25017 | 212 ft | 14 kts | 327° |
| 2026-05-06 10:51 | 53.42794 | -6.25145 | 212 ft | 13 kts | 271° |
| 2026-05-06 10:52 | 53.42822 | -6.25264 | 211 ft | 10 kts | 323° |
| 2026-05-06 10:52 | 53.42885 | -6.25309 | 216 ft | 10 kts | 340° |
| 2026-05-06 10:52 | 53.42943 | -6.25350 | 215 ft | 9 kts | 336° |
| 2026-05-06 10:52 | 53.43015 | -6.25403 | 216 ft | 15 kts | 337° |
| 2026-05-06 10:53 | 53.43132 | -6.25488 | 214 ft | 21 kts | 337° |
| 2026-05-06 10:53 | 53.43273 | -6.25588 | 216 ft | 23 kts | 336° |
| 2026-05-06 10:53 | 53.43398 | -6.25634 | 213 ft | 8 kts | 37° |
| 2026-05-06 10:53 | 53.43407 | -6.25565 | 211 ft | 5 kts | 93° |
| 2026-05-06 10:54 | 53.43403 | -6.25485 | 211 ft | 11 kts | 95° |
| 2026-05-06 10:54 | 53.43393 | -6.25298 | 211 ft | 21 kts | 95° |
| 2026-05-06 10:54 | 53.43376 | -6.25009 | 211 ft | 28 kts | 95° |
| 2026-05-06 10:54 | 53.43361 | -6.24706 | 211 ft | 17 kts | 94° |
| 2026-05-06 10:55 | 53.43412 | -6.24557 | 211 ft | 17 kts | 11° |
| 2026-05-06 10:55 | 53.43519 | -6.24541 | 213 ft | 8 kts | 356° |
| 2026-05-06 10:55 | 53.43526 | -6.24582 | 215 ft | 0 kts | 269° |
| 2026-05-06 10:55 | 53.43542 | -6.24842 | 213 ft | 59 kts | 276° |
| 2026-05-06 10:56 | 53.43599 | -6.25908 | 211 ft | 122 kts | 275° |
| 2026-05-06 10:56 | 53.43695 | -6.27613 | 239 ft | 167 kts | 275° |
| 2026-05-06 10:56 | 53.43833 | -6.29540 | 825 ft | 167 kts | 285° |
| 2026-05-06 10:56 | 53.44487 | -6.31098 | 1500 ft | 166 kts | 319° |
| 2026-05-06 10:57 | 53.45368 | -6.32488 | 1870 ft | 184 kts | 313° |
| 2026-05-06 10:57 | 53.46283 | -6.34172 | 2130 ft | 205 kts | 322° |
| 2026-05-06 10:57 | 53.47620 | -6.35103 | 2672 ft | 213 kts | 356° |
| 2026-05-06 10:57 | 53.49108 | -6.35101 | 3429 ft | 215 kts | 0° |
| 2026-05-06 10:58 | 53.50618 | -6.35003 | 4141 ft | 220 kts | 6° |
| 2026-05-06 10:58 | 53.51588 | -6.34502 | 4591 ft | 224 kts | 32° |
| 2026-05-06 10:58 | 53.52594 | -6.32492 | 5088 ft | 238 kts | 71° |
| 2026-05-06 10:58 | 53.52863 | -6.29626 | 5425 ft | 260 kts | 89° |
| 2026-05-06 10:59 | 53.52832 | -6.26501 | 6018 ft | 272 kts | 94° |
| 2026-05-06 10:59 | 53.52707 | -6.23304 | 6830 ft | 275 kts | 95° |
| 2026-05-06 10:59 | 53.52571 | -6.20064 | 7593 ft | 280 kts | 94° |
| 2026-05-06 10:59 | 53.52449 | -6.16765 | 8356 ft | 285 kts | 93° |
| 2026-05-06 11:00 | 53.52349 | -6.13407 | 8976 ft | 291 kts | 92° |
| 2026-05-06 11:00 | 53.52246 | -6.08866 | 9944 ft | 296 kts | 92° |
| 2026-05-06 11:00 | 53.52100 | -6.06577 | 10392 ft | 299 kts | 101° |
| 2026-05-06 11:00 | 53.51620 | -6.03054 | 10698 ft | 320 kts | 103° |
| 2026-05-06 11:01 | 53.51084 | -5.99286 | 10911 ft | 342 kts | 103° |
| 2026-05-06 11:01 | 53.50514 | -5.95345 | 11450 ft | 350 kts | 103° |
| 2026-05-06 11:01 | 53.49929 | -5.91335 | 12114 ft | 355 kts | 103° |
| 2026-05-06 11:01 | 53.49338 | -5.87281 | 12790 ft | 360 kts | 103° |
| 2026-05-06 11:02 | 53.48743 | -5.83169 | 13457 ft | 364 kts | 103° |
| 2026-05-06 11:02 | 53.48181 | -5.79002 | 14089 ft | 368 kts | 102° |
| 2026-05-06 11:02 | 53.47648 | -5.74769 | 14694 ft | 371 kts | 101° |
| 2026-05-06 11:02 | 53.47128 | -5.70500 | 15293 ft | 375 kts | 101° |
| 2026-05-06 11:03 | 53.46607 | -5.66199 | 15898 ft | 378 kts | 101° |
| 2026-05-06 11:03 | 53.46074 | -5.61864 | 16495 ft | 381 kts | 102° |
| 2026-05-06 11:03 | 53.45532 | -5.57547 | 17079 ft | 384 kts | 102° |
| 2026-05-06 11:03 | 53.44974 | -5.53148 | 17672 ft | 387 kts | 102° |
| 2026-05-06 11:04 | 53.44537 | -5.48672 | 18219 ft | 392 kts | 95° |
| 2026-05-06 11:04 | 53.44395 | -5.44027 | 18356 ft | 407 kts | 92° |
| 2026-05-06 11:04 | 53.44279 | -5.39193 | 18484 ft | 421 kts | 92° |
| 2026-05-06 11:04 | 53.44165 | -5.34199 | 18599 ft | 433 kts | 92° |
| 2026-05-06 11:05 | 53.44047 | -5.29083 | 18728 ft | 444 kts | 92° |
| 2026-05-06 11:05 | 53.43920 | -5.23854 | 18860 ft | 453 kts | 92° |
| 2026-05-06 11:05 | 53.43784 | -5.18546 | 19112 ft | 457 kts | 92° |
| 2026-05-06 11:05 | 53.43639 | -5.13203 | 19424 ft | 460 kts | 92° |
| 2026-05-06 11:06 | 53.43477 | -5.07834 | 19748 ft | 462 kts | 92° |
| 2026-05-06 11:06 | 53.43306 | -5.02451 | 20053 ft | 464 kts | 93° |
| 2026-05-06 11:06 | 53.43127 | -4.97037 | 20350 ft | 465 kts | 93° |
| 2026-05-06 11:06 | 53.42944 | -4.91603 | 20635 ft | 467 kts | 93° |
| 2026-05-06 11:07 | 53.42760 | -4.86156 | 20912 ft | 469 kts | 93° |
| 2026-05-06 11:07 | 53.42576 | -4.80670 | 21188 ft | 471 kts | 93° |
| 2026-05-06 11:07 | 53.42395 | -4.75225 | 21454 ft | 473 kts | 93° |
| 2026-05-06 11:07 | 53.42209 | -4.69714 | 21726 ft | 474 kts | 93° |
| 2026-05-06 11:08 | 53.42021 | -4.64236 | 22459 ft | 463 kts | 93° |
| 2026-05-06 11:08 | 53.41838 | -4.58953 | 23732 ft | 444 kts | 93° |
| 2026-05-06 11:08 | 53.41663 | -4.53901 | 24862 ft | 424 kts | 93° |
| 2026-05-06 11:08 | 53.41494 | -4.49086 | 26037 ft | 404 kts | 93° |
| 2026-05-06 11:09 | 53.41329 | -4.44482 | 27237 ft | 385 kts | 94° |
| 2026-05-06 11:09 | 53.41165 | -4.39999 | 27635 ft | 390 kts | 94° |
| 2026-05-06 11:09 | 53.40994 | -4.35397 | 27776 ft | 400 kts | 94° |
| 2026-05-06 11:09 | 53.40819 | -4.30691 | 27916 ft | 409 kts | 94° |
| 2026-05-06 11:10 | 53.40638 | -4.25880 | 28058 ft | 418 kts | 94° |
| 2026-05-06 11:10 | 53.40452 | -4.21018 | 28200 ft | 426 kts | 94° |
| 2026-05-06 11:10 | 53.40259 | -4.16038 | 28606 ft | 423 kts | 94° |
| 2026-05-06 11:10 | 53.40073 | -4.11236 | 29874 ft | 402 kts | 95° |
| 2026-05-06 11:11 | 53.39891 | -4.06607 | 30512 ft | 400 kts | 94° |
| 2026-05-06 11:11 | 53.39708 | -4.01907 | 30634 ft | 407 kts | 94° |
| 2026-05-06 11:11 | 53.39589 | -3.97123 | 30762 ft | 415 kts | 89° |
| 2026-05-06 11:11 | 53.39774 | -3.92253 | 30891 ft | 422 kts | 85° |
| 2026-05-06 11:12 | 53.40032 | -3.87317 | 31024 ft | 428 kts | 85° |
| 2026-05-06 11:12 | 53.40287 | -3.82319 | 31156 ft | 434 kts | 85° |
| 2026-05-06 11:12 | 53.40540 | -3.77243 | 31285 ft | 440 kts | 85° |
| 2026-05-06 11:12 | 53.40791 | -3.72101 | 31416 ft | 445 kts | 85° |
| 2026-05-06 11:13 | 53.41045 | -3.66904 | 31551 ft | 450 kts | 85° |
| 2026-05-06 11:13 | 53.41267 | -3.61631 | 31681 ft | 455 kts | 89° |
| 2026-05-06 11:13 | 53.41150 | -3.56297 | 31819 ft | 459 kts | 95° |
| 2026-05-06 11:13 | 53.40910 | -3.50938 | 31958 ft | 463 kts | 95° |
| 2026-05-06 11:14 | 53.40674 | -3.45600 | 32081 ft | 467 kts | 95° |
| 2026-05-06 11:14 | 53.40434 | -3.40153 | 32225 ft | 470 kts | 95° |
| 2026-05-06 11:14 | 53.40189 | -3.34673 | 32361 ft | 472 kts | 95° |
| 2026-05-06 11:14 | 53.39941 | -3.29234 | 33396 ft | 452 kts | 95° |
| 2026-05-06 11:15 | 53.39705 | -3.24106 | 34438 ft | 434 kts | 95° |
| 2026-05-06 11:15 | 53.39473 | -3.19174 | 34894 ft | 429 kts | 95° |
| 2026-05-06 11:15 | 53.39236 | -3.14183 | 35028 ft | 432 kts | 95° |
| 2026-05-06 11:16 | 53.38806 | -3.04011 | 35060 ft | 443 kts | 94° |
| 2026-05-06 11:16 | 53.38434 | -2.93556 | 35060 ft | 455 kts | 94° |
| 2026-05-06 11:17 | 53.38049 | -2.82836 | 35056 ft | 466 kts | 94° |
| 2026-05-06 11:17 | 53.37627 | -2.71934 | 35064 ft | 471 kts | 95° |
| 2026-05-06 11:18 | 53.37179 | -2.60991 | 35060 ft | 471 kts | 95° |
| 2026-05-06 11:18 | 53.36726 | -2.50043 | 35058 ft | 471 kts | 95° |
| 2026-05-06 11:19 | 53.36265 | -2.39095 | 35056 ft | 471 kts | 95° |
| 2026-05-06 11:19 | 53.35792 | -2.28234 | 35056 ft | 471 kts | 96° |
| 2026-05-06 11:20 | 53.34799 | -2.17354 | 35056 ft | 470 kts | 101° |
| 2026-05-06 11:20 | 53.33700 | -2.06654 | 35057 ft | 470 kts | 101° |
| 2026-05-06 11:21 | 53.32591 | -1.95877 | 35057 ft | 470 kts | 101° |
| 2026-05-06 11:21 | 53.31471 | -1.85092 | 35059 ft | 470 kts | 101° |
| 2026-05-06 11:22 | 53.30337 | -1.74322 | 35053 ft | 470 kts | 102° |
| 2026-05-06 11:22 | 53.29185 | -1.63561 | 35053 ft | 470 kts | 102° |
| 2026-05-06 11:23 | 53.28026 | -1.52808 | 35050 ft | 470 kts | 102° |
| 2026-05-06 11:23 | 53.26866 | -1.42063 | 35048 ft | 469 kts | 102° |
| 2026-05-06 11:24 | 53.25694 | -1.31334 | 35047 ft | 469 kts | 102° |
| 2026-05-06 11:24 | 53.24508 | -1.20610 | 35023 ft | 469 kts | 102° |
| 2026-05-06 11:25 | 53.23319 | -1.09913 | 35037 ft | 468 kts | 102° |
| 2026-05-06 11:25 | 53.22129 | -0.99307 | 35033 ft | 467 kts | 102° |
| 2026-05-06 11:26 | 53.20919 | -0.88677 | 35034 ft | 466 kts | 102° |
| 2026-05-06 11:26 | 53.19709 | -0.78064 | 35029 ft | 466 kts | 102° |
| 2026-05-06 11:27 | 53.18496 | -0.67461 | 35030 ft | 466 kts | 102° |
| 2026-05-06 11:27 | 53.17891 | -0.62202 | 35523 ft | 453 kts | 102° |
| 2026-05-06 11:27 | 53.17296 | -0.57057 | 35888 ft | 451 kts | 102° |
| 2026-05-06 11:27 | 53.16697 | -0.51925 | 36009 ft | 453 kts | 102° |
| 2026-05-06 11:28 | 53.16085 | -0.46736 | 36032 ft | 457 kts | 103° |
| 2026-05-06 11:28 | 53.14839 | -0.36244 | 36030 ft | 466 kts | 103° |
| 2026-05-06 11:29 | 53.13573 | -0.25569 | 36031 ft | 473 kts | 103° |
| 2026-05-06 11:29 | 53.12281 | -0.14751 | 36030 ft | 478 kts | 103° |
| 2026-05-06 11:30 | 53.10962 | -0.03854 | 36029 ft | 482 kts | 103° |
| 2026-05-06 11:30 | 53.09632 | 0.07029 | 36025 ft | 482 kts | 103° |
| 2026-05-06 11:31 | 53.08293 | 0.17966 | 36025 ft | 482 kts | 103° |
| 2026-05-06 11:31 | 53.06942 | 0.28896 | 36016 ft | 482 kts | 103° |
| 2026-05-06 11:32 | 53.05589 | 0.39766 | 36012 ft | 482 kts | 103° |
| 2026-05-06 11:32 | 53.04219 | 0.50679 | 36005 ft | 482 kts | 103° |
| 2026-05-06 11:33 | 53.02844 | 0.61567 | 35999 ft | 482 kts | 103° |
| 2026-05-06 11:33 | 53.01447 | 0.72450 | 35999 ft | 481 kts | 104° |
| 2026-05-06 11:34 | 53.00044 | 0.83330 | 35987 ft | 481 kts | 103° |
| 2026-05-06 11:34 | 52.98646 | 0.94116 | 35991 ft | 480 kts | 104° |
| 2026-05-06 11:35 | 52.96819 | 1.04755 | 35990 ft | 478 kts | 112° |
| 2026-05-06 11:35 | 52.94485 | 1.15086 | 35984 ft | 478 kts | 112° |
| 2026-05-06 11:36 | 52.92146 | 1.25414 | 35988 ft | 478 kts | 112° |
| 2026-05-06 11:36 | 52.89808 | 1.35655 | 35986 ft | 478 kts | 112° |
| 2026-05-06 11:37 | 52.87447 | 1.45962 | 35986 ft | 478 kts | 112° |
| 2026-05-06 11:37 | 52.85082 | 1.56247 | 35983 ft | 477 kts | 112° |
| 2026-05-06 11:38 | 52.82718 | 1.66500 | 35985 ft | 476 kts | 112° |
| 2026-05-06 11:38 | 52.80340 | 1.76720 | 35986 ft | 476 kts | 112° |
| 2026-05-06 11:39 | 52.77972 | 1.86872 | 35978 ft | 476 kts | 112° |
| 2026-05-06 11:39 | 52.75580 | 1.97078 | 35978 ft | 476 kts | 112° |
| 2026-05-06 11:40 | 52.73185 | 2.07254 | 35973 ft | 474 kts | 113° |
| 2026-05-06 11:40 | 52.70781 | 2.17377 | 35972 ft | 473 kts | 113° |
| 2026-05-06 11:41 | 52.68371 | 2.27479 | 35969 ft | 473 kts | 113° |
| 2026-05-06 11:41 | 52.65964 | 2.37568 | 35969 ft | 473 kts | 113° |
| 2026-05-06 11:42 | 52.63567 | 2.47595 | 35964 ft | 473 kts | 113° |
| 2026-05-06 11:42 | 52.61143 | 2.57659 | 35964 ft | 473 kts | 113° |
| 2026-05-06 11:43 | 52.58701 | 2.67719 | 35961 ft | 472 kts | 114° |
| 2026-05-06 11:43 | 52.56253 | 2.77751 | 35961 ft | 472 kts | 114° |
| 2026-05-06 11:44 | 52.52379 | 2.92624 | 35953 ft | 471 kts | 117° |
| 2026-05-06 11:44 | 52.49522 | 3.02237 | 35946 ft | 470 kts | 118° |
| 2026-05-06 11:45 | 52.46633 | 3.11846 | 35949 ft | 469 kts | 118° |
| 2026-05-06 11:45 | 52.43793 | 3.21485 | 35948 ft | 469 kts | 117° |
| 2026-05-06 11:46 | 52.40968 | 3.31135 | 35945 ft | 469 kts | 117° |
| 2026-05-06 11:46 | 52.38154 | 3.40699 | 35936 ft | 468 kts | 118° |
| 2026-05-06 11:47 | 52.35310 | 3.50290 | 35937 ft | 468 kts | 118° |
| 2026-05-06 11:47 | 52.32944 | 3.58245 | 35927 ft | 467 kts | 117° |
| 2026-05-06 11:48 | 52.30101 | 3.67789 | 35928 ft | 467 kts | 118° |
| 2026-05-06 11:48 | 52.27238 | 3.77331 | 35916 ft | 467 kts | 118° |
| 2026-05-06 11:49 | 52.24371 | 3.86847 | 35920 ft | 467 kts | 118° |
| 2026-05-06 11:49 | 52.21490 | 3.96376 | 35894 ft | 467 kts | 118° |
| 2026-05-06 11:50 | 52.18612 | 4.05860 | 35899 ft | 466 kts | 118° |
| 2026-05-06 11:50 | 52.15747 | 4.15279 | 35898 ft | 466 kts | 118° |
| 2026-05-06 11:51 | 52.12849 | 4.24746 | 35898 ft | 466 kts | 118° |
| 2026-05-06 11:51 | 52.09945 | 4.34198 | 35885 ft | 466 kts | 118° |
| 2026-05-06 11:52 | 52.07056 | 4.43568 | 35887 ft | 466 kts | 119° |
| 2026-05-06 11:52 | 52.05604 | 4.48267 | 36005 ft | 463 kts | 119° |
| 2026-05-06 11:52 | 52.04167 | 4.52913 | 36379 ft | 457 kts | 118° |
| 2026-05-06 11:53 | 52.02747 | 4.57499 | 36767 ft | 452 kts | 118° |
| 2026-05-06 11:53 | 52.01333 | 4.62058 | 36879 ft | 453 kts | 119° |
| 2026-05-06 11:53 | 51.98470 | 4.71238 | 36876 ft | 459 kts | 119° |
| 2026-05-06 11:54 | 51.95562 | 4.80517 | 36877 ft | 463 kts | 119° |
| 2026-05-06 11:54 | 51.92627 | 4.89867 | 36862 ft | 467 kts | 119° |
| 2026-05-06 11:55 | 51.89668 | 4.99249 | 36867 ft | 468 kts | 119° |
| 2026-05-06 11:55 | 51.86694 | 5.08634 | 36867 ft | 468 kts | 119° |
| 2026-05-06 11:56 | 51.83735 | 5.17958 | 36868 ft | 468 kts | 119° |
| 2026-05-06 11:56 | 51.80755 | 5.27338 | 36866 ft | 468 kts | 119° |
| 2026-05-06 11:57 | 51.77766 | 5.36691 | 36858 ft | 468 kts | 120° |
| 2026-05-06 11:57 | 51.74760 | 5.46029 | 36867 ft | 468 kts | 120° |
| 2026-05-06 11:58 | 51.71766 | 5.55288 | 36868 ft | 468 kts | 120° |
| 2026-05-06 11:58 | 51.68739 | 5.64613 | 36871 ft | 468 kts | 120° |
| 2026-05-06 11:59 | 51.65721 | 5.73921 | 36868 ft | 468 kts | 120° |
| 2026-05-06 11:59 | 51.62703 | 5.83191 | 36866 ft | 467 kts | 120° |
| 2026-05-06 12:00 | 51.59664 | 5.92452 | 36868 ft | 467 kts | 120° |
| 2026-05-06 12:00 | 51.56646 | 6.01625 | 36871 ft | 467 kts | 120° |
| 2026-05-06 12:01 | 51.53601 | 6.10857 | 36613 ft | 465 kts | 120° |
| 2026-05-06 12:01 | 51.52087 | 6.15429 | 36353 ft | 462 kts | 120° |
| 2026-05-06 12:01 | 51.50578 | 6.19973 | 36100 ft | 460 kts | 119° |
| 2026-05-06 12:02 | 51.49292 | 6.24674 | 35852 ft | 461 kts | 113° |
| 2026-05-06 12:02 | 51.48121 | 6.29474 | 35582 ft | 463 kts | 113° |
| 2026-05-06 12:02 | 51.46945 | 6.34307 | 35332 ft | 467 kts | 113° |
| 2026-05-06 12:02 | 51.45758 | 6.39168 | 35095 ft | 468 kts | 113° |
| 2026-05-06 12:03 | 51.44566 | 6.44028 | 34854 ft | 468 kts | 113° |
| 2026-05-06 12:03 | 51.43370 | 6.48884 | 34606 ft | 468 kts | 113° |
| 2026-05-06 12:03 | 51.42172 | 6.53730 | 34365 ft | 468 kts | 113° |
| 2026-05-06 12:03 | 51.40968 | 6.58580 | 34127 ft | 468 kts | 113° |
| 2026-05-06 12:04 | 51.39769 | 6.63395 | 33903 ft | 468 kts | 113° |
| 2026-05-06 12:04 | 51.38568 | 6.68224 | 33815 ft | 467 kts | 113° |
| 2026-05-06 12:04 | 51.36160 | 6.77901 | 33843 ft | 468 kts | 113° |
| 2026-05-06 12:05 | 51.33747 | 6.87530 | 33839 ft | 469 kts | 114° |
| 2026-05-06 12:05 | 51.31307 | 6.97191 | 33837 ft | 469 kts | 114° |
| 2026-05-06 12:06 | 51.28781 | 7.06785 | 33833 ft | 467 kts | 120° |
| 2026-05-06 12:06 | 51.24920 | 7.14997 | 33830 ft | 462 kts | 139° |
| 2026-05-06 12:07 | 51.19703 | 7.20696 | 33808 ft | 440 kts | 156° |
| 2026-05-06 12:07 | 51.17015 | 7.22823 | 33516 ft | 423 kts | 156° |
| 2026-05-06 12:07 | 51.14409 | 7.24879 | 32819 ft | 413 kts | 155° |
| 2026-05-06 12:08 | 51.11857 | 7.26896 | 32123 ft | 404 kts | 155° |
| 2026-05-06 12:08 | 51.09371 | 7.28880 | 31199 ft | 402 kts | 154° |
| 2026-05-06 12:08 | 51.06812 | 7.30963 | 29701 ft | 424 kts | 152° |
| 2026-05-06 12:08 | 51.04131 | 7.33175 | 27820 ft | 444 kts | 152° |
| 2026-05-06 12:09 | 51.01364 | 7.35478 | 25889 ft | 463 kts | 152° |
| 2026-05-06 12:09 | 50.98467 | 7.37893 | 24330 ft | 474 kts | 152° |
| 2026-05-06 12:09 | 50.95576 | 7.40293 | 23787 ft | 461 kts | 153° |
| 2026-05-06 12:09 | 50.92778 | 7.42601 | 23464 ft | 445 kts | 153° |
| 2026-05-06 12:10 | 50.90011 | 7.44865 | 23053 ft | 450 kts | 153° |
| 2026-05-06 12:10 | 50.87191 | 7.47163 | 22502 ft | 459 kts | 154° |
| 2026-05-06 12:10 | 50.84343 | 7.49478 | 21967 ft | 458 kts | 154° |
| 2026-05-06 12:10 | 50.81535 | 7.51766 | 21347 ft | 449 kts | 154° |
| 2026-05-06 12:11 | 50.78779 | 7.54017 | 20573 ft | 443 kts | 154° |
| 2026-05-06 12:11 | 50.76054 | 7.56246 | 19812 ft | 438 kts | 155° |
| 2026-05-06 12:11 | 50.73361 | 7.58445 | 18981 ft | 435 kts | 155° |
| 2026-05-06 12:11 | 50.70660 | 7.60640 | 18017 ft | 437 kts | 155° |
| 2026-05-06 12:12 | 50.67964 | 7.62825 | 16926 ft | 430 kts | 155° |
| 2026-05-06 12:12 | 50.65383 | 7.64917 | 15904 ft | 415 kts | 155° |
| 2026-05-06 12:12 | 50.62846 | 7.66972 | 14894 ft | 406 kts | 155° |
| 2026-05-06 12:12 | 50.60358 | 7.68981 | 13914 ft | 400 kts | 155° |
| 2026-05-06 12:13 | 50.57897 | 7.70964 | 12882 ft | 394 kts | 155° |
| 2026-05-06 12:13 | 50.55474 | 7.72912 | 11834 ft | 387 kts | 155° |
| 2026-05-06 12:13 | 50.53073 | 7.74842 | 11039 ft | 386 kts | 155° |
| 2026-05-06 12:13 | 50.50667 | 7.76773 | 10675 ft | 389 kts | 155° |
| 2026-05-06 12:14 | 50.48259 | 7.78702 | 10306 ft | 388 kts | 155° |
| 2026-05-06 12:14 | 50.45854 | 7.80627 | 9938 ft | 386 kts | 155° |
| 2026-05-06 12:14 | 50.43495 | 7.82629 | 9569 ft | 385 kts | 149° |
| 2026-05-06 12:14 | 50.41358 | 7.85159 | 9178 ft | 384 kts | 144° |
| 2026-05-06 12:15 | 50.39264 | 7.87765 | 8822 ft | 382 kts | 144° |
| 2026-05-06 12:15 | 50.37204 | 7.90332 | 8787 ft | 382 kts | 144° |
| 2026-05-06 12:15 | 50.35121 | 7.92926 | 8799 ft | 383 kts | 144° |
| 2026-05-06 12:15 | 50.33037 | 7.95512 | 8783 ft | 382 kts | 144° |
| 2026-05-06 12:16 | 50.30947 | 7.98093 | 8786 ft | 382 kts | 144° |
| 2026-05-06 12:16 | 50.28856 | 8.00669 | 8787 ft | 382 kts | 144° |
| 2026-05-06 12:16 | 50.26786 | 8.03267 | 8786 ft | 383 kts | 140° |
| 2026-05-06 12:16 | 50.25025 | 8.06418 | 8792 ft | 386 kts | 130° |
| 2026-05-06 12:17 | 50.23375 | 8.09741 | 8787 ft | 387 kts | 130° |
| 2026-05-06 12:17 | 50.21734 | 8.13084 | 8791 ft | 388 kts | 130° |
| 2026-05-06 12:17 | 50.20101 | 8.16420 | 8780 ft | 387 kts | 130° |
| 2026-05-06 12:17 | 50.18460 | 8.19756 | 8786 ft | 386 kts | 130° |
| 2026-05-06 12:18 | 50.16820 | 8.23075 | 8789 ft | 386 kts | 130° |
| 2026-05-06 12:18 | 50.15178 | 8.26389 | 8567 ft | 385 kts | 130° |
| 2026-05-06 12:18 | 50.13537 | 8.29699 | 8186 ft | 385 kts | 130° |
| 2026-05-06 12:18 | 50.11910 | 8.32999 | 7804 ft | 383 kts | 128° |
| 2026-05-06 12:19 | 50.10721 | 8.36708 | 7426 ft | 386 kts | 106° |
| 2026-05-06 12:19 | 50.10596 | 8.40859 | 7051 ft | 387 kts | 81° |
| 2026-05-06 12:19 | 50.11398 | 8.44860 | 6781 ft | 387 kts | 70° |
| 2026-05-06 12:19 | 50.12327 | 8.48734 | 6772 ft | 371 kts | 70° |
| 2026-05-06 12:20 | 50.13218 | 8.52392 | 6570 ft | 352 kts | 70° |
| 2026-05-06 12:20 | 50.14054 | 8.55816 | 6265 ft | 326 kts | 70° |
| 2026-05-06 12:20 | 50.14831 | 8.59027 | 5887 ft | 307 kts | 71° |
| 2026-05-06 12:20 | 50.15557 | 8.62067 | 5483 ft | 291 kts | 71° |
| 2026-05-06 12:21 | 50.16243 | 8.64955 | 5113 ft | 277 kts | 71° |
| 2026-05-06 12:21 | 50.16896 | 8.67712 | 4733 ft | 265 kts | 71° |
| 2026-05-06 12:21 | 50.17529 | 8.70385 | 4362 ft | 261 kts | 71° |
| 2026-05-06 12:21 | 50.18145 | 8.72985 | 4032 ft | 255 kts | 71° |
| 2026-05-06 12:22 | 50.18758 | 8.75573 | 3992 ft | 252 kts | 71° |
| 2026-05-06 12:22 | 50.19358 | 8.78115 | 3997 ft | 248 kts | 71° |
| 2026-05-06 12:22 | 50.19949 | 8.80634 | 3996 ft | 246 kts | 71° |
| 2026-05-06 12:22 | 50.20539 | 8.83143 | 3999 ft | 247 kts | 71° |
| 2026-05-06 12:23 | 50.21133 | 8.85661 | 3997 ft | 246 kts | 71° |
| 2026-05-06 12:23 | 50.21726 | 8.88177 | 4000 ft | 248 kts | 71° |
| 2026-05-06 12:23 | 50.22229 | 8.90724 | 3985 ft | 244 kts | 86° |
| 2026-05-06 12:23 | 50.21988 | 8.93274 | 3993 ft | 237 kts | 120° |
| 2026-05-06 12:24 | 50.20958 | 8.95194 | 4001 ft | 230 kts | 148° |
| 2026-05-06 12:24 | 50.19581 | 8.96407 | 3989 ft | 225 kts | 166° |
| 2026-05-06 12:24 | 50.18111 | 8.96921 | 3989 ft | 209 kts | 175° |
| 2026-05-06 12:24 | 50.16697 | 8.96839 | 3998 ft | 201 kts | 192° |
| 2026-05-06 12:25 | 50.15346 | 8.96328 | 3992 ft | 200 kts | 198° |
| 2026-05-06 12:25 | 50.14037 | 8.95714 | 3991 ft | 192 kts | 201° |
| 2026-05-06 12:25 | 50.12906 | 8.94687 | 4029 ft | 189 kts | 222° |
| 2026-05-06 12:25 | 50.12132 | 8.93032 | 4006 ft | 189 kts | 245° |
| 2026-05-06 12:26 | 50.11678 | 8.91133 | 3986 ft | 179 kts | 248° |
| 2026-05-06 12:26 | 50.11285 | 8.89447 | 3999 ft | 150 kts | 248° |
| 2026-05-06 12:26 | 50.10946 | 8.88002 | 3995 ft | 140 kts | 248° |
| 2026-05-06 12:26 | 50.10611 | 8.86577 | 3982 ft | 140 kts | 248° |
| 2026-05-06 12:27 | 50.10298 | 8.85156 | 3928 ft | 138 kts | 250° |
| 2026-05-06 12:27 | 50.09987 | 8.83746 | 4137 ft | 141 kts | 249° |
| 2026-05-06 12:27 | 50.09642 | 8.82220 | 4406 ft | 156 kts | 249° |
| 2026-05-06 12:27 | 50.09266 | 8.80556 | 4665 ft | 170 kts | 249° |
| 2026-05-06 12:28 | 50.08856 | 8.78718 | 4914 ft | 190 kts | 249° |
| 2026-05-06 12:28 | 50.08338 | 8.76740 | 4988 ft | 200 kts | 238° |
| 2026-05-06 12:28 | 50.07225 | 8.75253 | 4978 ft | 233 kts | 204° |
| 2026-05-06 12:28 | 50.05502 | 8.74768 | 5008 ft | 275 kts | 180° |
| 2026-05-06 12:29 | 50.03552 | 8.75381 | 4898 ft | 293 kts | 165° |
| 2026-05-06 12:29 | 50.01610 | 8.76355 | 4647 ft | 295 kts | 164° |
| 2026-05-06 12:29 | 49.99660 | 8.77354 | 4386 ft | 294 kts | 164° |
| 2026-05-06 12:29 | 49.97800 | 8.78633 | 4134 ft | 295 kts | 147° |
| 2026-05-06 12:30 | 49.96429 | 8.81004 | 3992 ft | 300 kts | 121° |
| 2026-05-06 12:30 | 49.95854 | 8.84120 | 4001 ft | 306 kts | 94° |
| 2026-05-06 12:30 | 49.96138 | 8.87403 | 4004 ft | 309 kts | 76° |
| 2026-05-06 12:30 | 49.96737 | 8.90576 | 4002 ft | 310 kts | 74° |
| 2026-05-06 12:31 | 49.97377 | 8.93776 | 4004 ft | 310 kts | 73° |
| 2026-05-06 12:31 | 49.98019 | 8.96989 | 4001 ft | 310 kts | 74° |
| 2026-05-06 12:31 | 49.98653 | 9.00185 | 3998 ft | 309 kts | 74° |
| 2026-05-06 12:31 | 49.99289 | 9.03384 | 3996 ft | 309 kts | 74° |
| 2026-05-06 12:32 | 49.99924 | 9.06575 | 3994 ft | 308 kts | 74° |
| 2026-05-06 12:32 | 50.00555 | 9.09766 | 3993 ft | 309 kts | 74° |
| 2026-05-06 12:32 | 50.01248 | 9.12931 | 3989 ft | 310 kts | 65° |
| 2026-05-06 12:32 | 50.02543 | 9.15579 | 3989 ft | 310 kts | 39° |
| 2026-05-06 12:33 | 50.04428 | 9.17156 | 3990 ft | 303 kts | 13° |
| 2026-05-06 12:33 | 50.06430 | 9.17331 | 3992 ft | 278 kts | 345° |
| 2026-05-06 12:33 | 50.08105 | 9.16180 | 3993 ft | 255 kts | 320° |
| 2026-05-06 12:33 | 50.09260 | 9.14246 | 3986 ft | 236 kts | 299° |
| 2026-05-06 12:34 | 50.10010 | 9.12024 | 3985 ft | 230 kts | 288° |
| 2026-05-06 12:34 | 50.10545 | 9.09682 | 3993 ft | 229 kts | 285° |
| 2026-05-06 12:34 | 50.11015 | 9.07311 | 3993 ft | 230 kts | 284° |
| 2026-05-06 12:34 | 50.11322 | 9.05731 | 3994 ft | 230 kts | 283° |
| 2026-05-06 12:35 | 50.11787 | 9.03360 | 3991 ft | 228 kts | 284° |
| 2026-05-06 12:35 | 50.12249 | 9.00994 | 3990 ft | 225 kts | 284° |
| 2026-05-06 12:35 | 50.12590 | 8.98716 | 3986 ft | 207 kts | 275° |
| 2026-05-06 12:35 | 50.12763 | 8.96575 | 3997 ft | 189 kts | 265° |
| 2026-05-06 12:36 | 50.12506 | 8.94649 | 4015 ft | 180 kts | 247° |
| 2026-05-06 12:36 | 50.12078 | 8.92830 | 3993 ft | 178 kts | 248° |
| 2026-05-06 12:36 | 50.11662 | 8.91055 | 4007 ft | 172 kts | 247° |
| 2026-05-06 12:36 | 50.11259 | 8.89338 | 4001 ft | 167 kts | 248° |
| 2026-05-06 12:37 | 50.10862 | 8.87646 | 3997 ft | 166 kts | 248° |
| 2026-05-06 12:37 | 50.10463 | 8.85952 | 3941 ft | 167 kts | 248° |
| 2026-05-06 12:37 | 50.10062 | 8.84256 | 3839 ft | 166 kts | 249° |
| 2026-05-06 12:37 | 50.09825 | 8.82482 | 3778 ft | 170 kts | 262° |
| 2026-05-06 12:38 | 50.09697 | 8.80657 | 3641 ft | 168 kts | 258° |
| 2026-05-06 12:38 | 50.09417 | 8.78896 | 3497 ft | 167 kts | 250° |
| 2026-05-06 12:38 | 50.09048 | 8.77185 | 3247 ft | 163 kts | 249° |
| 2026-05-06 12:38 | 50.08681 | 8.75609 | 2992 ft | 149 kts | 247° |
| 2026-05-06 12:39 | 50.08290 | 8.74165 | 2734 ft | 141 kts | 245° |
| 2026-05-06 12:39 | 50.07929 | 8.72766 | 2352 ft | 139 kts | 246° |
| 2026-05-06 12:39 | 50.07592 | 8.71409 | 2078 ft | 135 kts | 247° |
| 2026-05-06 12:39 | 50.07253 | 8.70044 | 1904 ft | 136 kts | 248° |
| 2026-05-06 12:40 | 50.06924 | 8.68667 | 1705 ft | 134 kts | 248° |
| 2026-05-06 12:40 | 50.06596 | 8.67320 | 1563 ft | 133 kts | 247° |
| 2026-05-06 12:40 | 50.06259 | 8.65972 | 1375 ft | 135 kts | 246° |
| 2026-05-06 12:40 | 50.05948 | 8.64600 | 1193 ft | 136 kts | 249° |
| 2026-05-06 12:41 | 50.05646 | 8.63223 | 999 ft | 134 kts | 243° |
| 2026-05-06 12:41 | 50.05291 | 8.61879 | 785 ft | 136 kts | 244° |
| 2026-05-06 12:41 | 50.04936 | 8.60496 | 613 ft | 141 kts | 245° |
| 2026-05-06 12:41 | 50.04609 | 8.59076 | 414 ft | 137 kts | 243° |
| 2026-05-06 12:42 | 50.04288 | 8.57737 | 335 ft | 121 kts | 244° |
| 2026-05-06 12:42 | 50.04050 | 8.56752 | 352 ft | 74 kts | 250° |
| 2026-05-06 12:42 | 50.03922 | 8.56233 | 352 ft | 27 kts | 250° |
| 2026-05-06 12:42 | 50.03877 | 8.56013 | 357 ft | 19 kts | 263° |
| 2026-05-06 12:43 | 50.03886 | 8.55867 | 354 ft | 12 kts | 275° |
| 2026-05-06 12:43 | 50.03896 | 8.55754 | 362 ft | 9 kts | 278° |
| 2026-05-06 12:43 | 50.03908 | 8.55666 | 359 ft | 7 kts | 294° |
| 2026-05-06 12:43 | 50.03947 | 8.55634 | 354 ft | 6 kts | 8° |
| 2026-05-06 12:44 | 50.03979 | 8.55681 | 360 ft | 7 kts | 54° |
| 2026-05-06 12:44 | 50.04001 | 8.55748 | 359 ft | 7 kts | 70° |
| 2026-05-06 12:44 | 50.04028 | 8.55865 | 359 ft | 17 kts | 69° |
| 2026-05-06 12:44 | 50.04083 | 8.56095 | 353 ft | 27 kts | 70° |
| 2026-05-06 12:45 | 50.04151 | 8.56381 | 347 ft | 30 kts | 69° |
| 2026-05-06 12:45 | 50.04208 | 8.56619 | 350 ft | 19 kts | 69° |
| 2026-05-06 12:45 | 50.04290 | 8.56953 | 354 ft | 14 kts | 69° |
| 2026-05-06 12:46 | 50.04326 | 8.57104 | 349 ft | 16 kts | 70° |
| 2026-05-06 12:46 | 50.04363 | 8.57265 | 350 ft | 18 kts | 70° |
| 2026-05-06 12:46 | 50.04413 | 8.57476 | 339 ft | 22 kts | 69° |
| 2026-05-06 12:46 | 50.04467 | 8.57705 | 339 ft | 23 kts | 70° |
| 2026-05-06 12:47 | 50.04523 | 8.57938 | 339 ft | 20 kts | 69° |
| 2026-05-06 12:47 | 50.04603 | 8.58019 | 348 ft | 10 kts | 343° |
| 2026-05-06 12:47 | 50.04651 | 8.57994 | 351 ft | 5 kts | 341° |
| 2026-05-06 12:47 | 50.04708 | 8.57964 | 353 ft | 20 kts | 341° |
| 2026-05-06 12:48 | 50.04775 | 8.58044 | 353 ft | 12 kts | 70° |
| 2026-05-06 12:48 | 50.04803 | 8.58165 | 352 ft | 12 kts | 69° |
| 2026-05-06 12:48 | 50.04834 | 8.58289 | 356 ft | 13 kts | 69° |
| 2026-05-06 12:48 | 50.04865 | 8.58421 | 349 ft | 13 kts | 69° |
| 2026-05-06 12:49 | 50.04897 | 8.58557 | 345 ft | 14 kts | 70° |
| 2026-05-06 12:49 | 50.04928 | 8.58693 | 345 ft | 12 kts | 70° |
| 2026-05-06 12:49 | 50.04951 | 8.58797 | 349 ft | 8 kts | 70° |
| 2026-05-06 12:49 | 50.04974 | 8.58895 | 348 ft | 11 kts | 70° |
| 2026-05-06 12:50 | 50.05005 | 8.59029 | 359 ft | 12 kts | 68° |
| 2026-05-06 12:50 | 50.05024 | 8.59099 | 357 ft | 0 kts | 67° |
| 2026-05-06 12:50 | 50.05024 | 8.59133 | 358 ft | 6 kts | 122° |
| 2026-05-06 12:50 | 50.05001 | 8.59141 | 358 ft | 5 kts | 163° |
| 2026-05-06 12:51 | 50.04982 | 8.59151 | 358 ft | 4 kts | 161° |
| 2026-05-06 12:51 | 50.04981 | 8.59151 | 358 ft | 0 kts | 161° |